createdAt,value
2022-09-26T00:01:41.638Z,100139.06
2022-09-26T00:04:15.814Z,100128.16
2022-09-26T00:06:45.192Z,100124.44
2022-09-26T00:09:14.106Z,100120.75
2022-09-26T00:11:42.646Z,100124.09
2022-09-26T00:14:14.752Z,100119.63
2022-09-26T00:16:43.731Z,100121.47
2022-09-26T00:19:12.358Z,100122.38
2022-09-26T00:21:40.646Z,100118.66
2022-09-26T00:24:10.185Z,100120.31
2022-09-26T00:26:39.040Z,100129.69
2022-09-26T00:29:10.669Z,100120.47
2022-09-26T00:31:40.956Z,100117.72
2022-09-26T00:34:09.097Z,100120.81
2022-09-26T00:36:38.697Z,100122.09
2022-09-26T00:39:08.751Z,100113.47
2022-09-26T00:41:38.637Z,100113.16
2022-09-26T00:44:40.078Z,100113.16
2022-09-26T00:47:20.720Z,100115.19
2022-09-26T00:49:50.837Z,100112.06
2022-09-26T00:52:20.481Z,100109.16
2022-09-26T00:54:51.468Z,100114.13
2022-09-26T00:57:25.241Z,100109.16
2022-09-26T00:59:58.762Z,100106.94
2022-09-26T01:02:29.377Z,100104.91
2022-09-26T01:04:59.419Z,100101.22
2022-09-26T01:07:30.008Z,100091.47
2022-09-26T01:09:59.379Z,100086.47
2022-09-26T01:12:29.088Z,100090.34
2022-09-26T01:14:57.927Z,100089.81
2022-09-26T01:17:27.214Z,100085.75
2022-09-26T01:20:15.115Z,100082.81
2022-09-26T01:23:17.844Z,100086.69
2022-09-26T01:26:15.232Z,100068.09
2022-09-26T01:29:04.464Z,100066.63
2022-09-26T01:31:42.020Z,100066.59
2022-09-26T01:34:19.440Z,100071.38
2022-09-26T01:37:07.983Z,100070.78
2022-09-26T01:39:48.733Z,100071.50
2022-09-26T01:42:27.727Z,100074.22
2022-09-26T01:45:02.079Z,100071.22
2022-09-26T01:47:41.285Z,100074.66
2022-09-26T01:50:16.444Z,100068.03
2022-09-26T01:52:50.906Z,100071.66
2022-09-26T01:55:22.598Z,100068.75
2022-09-26T01:57:56.514Z,100065.03
2022-09-26T02:00:24.639Z,100070.16
2022-09-26T02:02:57.667Z,100064.03
2022-09-26T02:05:32.804Z,100063.72
2022-09-26T02:08:05.878Z,100062.56
2022-09-26T02:10:37.488Z,100066.78
2022-09-26T02:13:12.302Z,100070.44
2022-09-26T02:15:41.352Z,100064.19
2022-09-26T02:18:16.447Z,100051.50
2022-09-26T02:20:49.279Z,100051.88
2022-09-26T02:23:17.663Z,100053.53
2022-09-26T02:25:46.224Z,100048.75
2022-09-26T02:28:15.989Z,100052.97
2022-09-26T02:30:47.045Z,100043.97
2022-09-26T02:33:17.366Z,100040.47
2022-09-26T02:35:57.648Z,100033.47
2022-09-26T02:38:31.217Z,100029.78
2022-09-26T02:41:23.342Z,100023.00
2022-09-26T02:44:17.520Z,100019.16
2022-09-26T02:47:11.278Z,100014.75
2022-09-26T02:49:54.730Z,100001.75
2022-09-26T02:52:35.964Z,99999.22
2022-09-26T02:55:15.870Z,100002.19
2022-09-26T02:57:50.847Z,99999.44
2022-09-26T03:00:23.216Z,99996.66
2022-09-26T03:02:58.379Z,99991.16
2022-09-26T03:05:30.405Z,99984.19
2022-09-26T03:08:03.982Z,99982.69
2022-09-26T03:10:33.856Z,99984.19
2022-09-26T03:13:07.592Z,99976.78
2022-09-26T03:15:38.281Z,99979.88
2022-09-26T03:18:10.729Z,99973.25
2022-09-26T03:20:40.796Z,99970.13
2022-09-26T03:23:09.620Z,99968.63
2022-09-26T03:25:38.601Z,99961.66
2022-09-26T03:28:10.458Z,99973.75
2022-09-26T03:30:38.987Z,99962.72
2022-09-26T03:33:36.086Z,99962.84
2022-09-26T03:36:07.333Z,99964.81
2022-09-26T03:38:35.248Z,99966.22
2022-09-26T03:41:17.390Z,99960.53
2022-09-26T03:43:51.025Z,99948.97
2022-09-26T03:46:19.192Z,99945.06
2022-09-26T03:48:47.250Z,99937.69
2022-09-26T03:51:16.625Z,99929.47
2022-09-26T03:53:47.066Z,99931.16
2022-09-26T03:56:19.500Z,99926.19
2022-09-26T03:58:48.972Z,99923.97
2022-09-26T04:01:18.394Z,99917.00
2022-09-26T04:03:50.897Z,99912.38
2022-09-26T04:06:21.465Z,99908.28
2022-09-26T04:08:53.279Z,99908.63
2022-09-26T04:11:24.389Z,99901.09
2022-09-26T04:13:54.196Z,99900.34
2022-09-26T04:16:27.518Z,99915.00
2022-09-26T04:19:04.520Z,99903.25
2022-09-26T04:21:34.636Z,99908.81
2022-09-26T04:24:03.485Z,99907.78
2022-09-26T04:26:32.009Z,99904.72
2022-09-26T04:28:59.932Z,99908.44
2022-09-26T04:31:48.002Z,99896.72
2022-09-26T04:34:23.458Z,99884.66
2022-09-26T04:36:56.463Z,99882.63
2022-09-26T04:39:24.784Z,99880.41
2022-09-26T04:41:53.443Z,99885.38
2022-09-26T04:44:22.354Z,99898.44
2022-09-26T04:46:50.229Z,99886.09
2022-09-26T04:49:20.702Z,99881.91
2022-09-26T04:51:48.747Z,99878.25
2022-09-26T04:54:18.246Z,99871.66
2022-09-26T04:56:47.386Z,99861.75
2022-09-26T04:59:15.683Z,99857.00
2022-09-26T05:01:56.739Z,99857.03
2022-09-26T05:04:59.812Z,99856.63
2022-09-26T05:07:29.409Z,99860.31
2022-09-26T05:09:58.704Z,99853.34
2022-09-26T05:12:33.228Z,99856.28
2022-09-26T05:15:01.707Z,99861.97
2022-09-26T05:17:31.026Z,99861.97
2022-09-26T05:20:02.514Z,99859.91
2022-09-26T05:22:40.807Z,99854.03
2022-09-26T05:25:29.391Z,99844.63
2022-09-26T05:27:57.373Z,99844.44
2022-09-26T05:30:27.002Z,99839.06
2022-09-26T05:32:55.073Z,99839.78
2022-09-26T05:35:23.513Z,99833.00
2022-09-26T05:37:59.350Z,99837.22
2022-09-26T05:40:46.802Z,99833.69
2022-09-26T05:43:15.095Z,99829.28
2022-09-26T05:45:44.243Z,99826.84
2022-09-26T05:48:15.365Z,99825.19
2022-09-26T05:50:45.004Z,99832.56
2022-09-26T05:53:13.304Z,99821.31
2022-09-26T05:55:42.838Z,99826.47
2022-09-26T05:58:25.011Z,99826.28
2022-09-26T06:01:25.477Z,99823.16
2022-09-26T06:04:03.475Z,99820.03
2022-09-26T06:06:31.564Z,99808.41
2022-09-26T06:09:10.282Z,99807.66
2022-09-26T06:12:02.909Z,99807.13
2022-09-26T06:14:31.983Z,99800.63
2022-09-26T06:16:59.973Z,99799.34
2022-09-26T06:19:27.924Z,99799.63
2022-09-26T06:21:56.008Z,99793.09
2022-09-26T06:24:24.056Z,99789.06
2022-09-26T06:26:56.362Z,99778.78
2022-09-26T06:29:26.695Z,99776.84
2022-09-26T06:31:54.922Z,99778.09
2022-09-26T06:34:26.373Z,99776.19
2022-09-26T06:36:57.329Z,99772.22
2022-09-26T06:39:31.385Z,99772.13
2022-09-26T06:41:59.312Z,99766.75
2022-09-26T06:44:49.440Z,99763.22
2022-09-26T06:47:27.096Z,99758.25
2022-09-26T06:50:13.329Z,99759.00
2022-09-26T06:52:45.474Z,99762.19
2022-09-26T06:55:15.114Z,99769.84
2022-09-26T06:57:45.170Z,99771.47
2022-09-26T07:00:16.800Z,99763.56
2022-09-26T07:03:03.380Z,99751.50
2022-09-26T07:05:49.644Z,99759.16
2022-09-26T07:08:17.955Z,99760.63
2022-09-26T07:10:47.100Z,99758.56
2022-09-26T07:13:23.099Z,99744.25
2022-09-26T07:15:53.388Z,99745.38
2022-09-26T07:18:47.358Z,99746.34
2022-09-26T07:21:23.273Z,99741.69
2022-09-26T07:24:13.944Z,99753.13
2022-09-26T07:26:42.420Z,99755.34
2022-09-26T07:29:10.856Z,99744.34
2022-09-26T07:31:40.924Z,99744.22
2022-09-26T07:34:24.818Z,99737.94
2022-09-26T07:36:54.012Z,99731.78
2022-09-26T07:39:22.860Z,99735.13
2022-09-26T07:41:51.144Z,99740.34
2022-09-26T07:45:09.249Z,99733.50
2022-09-26T07:47:26.027Z,99729.78
2022-09-26T07:50:14.926Z,99742.00
2022-09-26T07:53:02.831Z,99733.84
2022-09-26T07:55:33.684Z,99740.72
2022-09-26T07:58:30.724Z,99733.38
2022-09-26T08:01:12.285Z,99741.41
2022-09-26T08:04:06.259Z,99731.06
2022-09-26T08:06:38.345Z,99729.38
2022-09-26T08:09:07.885Z,99730.44
2022-09-26T08:11:55.736Z,99732.03
2022-09-26T08:14:37.376Z,99727.09
2022-09-26T08:17:18.379Z,99727.13
2022-09-26T08:19:47.964Z,99713.16
2022-09-26T08:22:16.030Z,99716.28
2022-09-26T08:24:49.610Z,99721.00
2022-09-26T08:27:43.970Z,99713.19
2022-09-26T08:30:13.483Z,99719.78
2022-09-26T08:32:42.053Z,99721.69
2022-09-26T08:35:12.215Z,99719.34
2022-09-26T08:38:02.665Z,99716.53
2022-09-26T08:41:01.662Z,99712.81
2022-09-26T08:43:54.007Z,99712.16
2022-09-26T08:46:38.938Z,99707.94
2022-09-26T08:49:40.080Z,99700.53
2022-09-26T08:52:22.139Z,99703.44
2022-09-26T08:54:53.049Z,99715.88
2022-09-26T08:57:31.455Z,99704.50
2022-09-26T08:59:59.703Z,99702.91
2022-09-26T09:02:34.459Z,99693.41
2022-09-26T09:05:12.167Z,99689.91
2022-09-26T09:07:49.838Z,99692.03
2022-09-26T09:10:21.962Z,99690.50
2022-09-26T09:13:02.081Z,99682.38
2022-09-26T09:16:04.719Z,99676.50
2022-09-26T09:18:59.141Z,99680.25
2022-09-26T09:22:06.740Z,99672.41
2022-09-26T09:24:54.626Z,99671.69
2022-09-26T09:30:24.479Z,99670.66
2022-09-26T09:33:19.274Z,99661.03
2022-09-26T09:35:56.068Z,99654.03
2022-09-26T09:38:35.356Z,99661.09
2022-09-26T09:41:14.856Z,99654.28
2022-09-26T09:43:47.502Z,99648.31
2022-09-26T09:46:22.971Z,99641.22
2022-09-26T09:48:56.232Z,99632.81
2022-09-26T09:51:45.282Z,99616.94
2022-09-26T09:54:33.466Z,99620.66
2022-09-26T09:57:23.366Z,99621.97
2022-09-26T10:00:09.773Z,99620.53
2022-09-26T10:03:00.107Z,99632.03
2022-09-26T10:05:41.936Z,99621.34
2022-09-26T10:08:14.742Z,99606.69
2022-09-26T10:11:12.676Z,99606.22
2022-09-26T10:14:16.727Z,99606.47
2022-09-26T10:17:15.671Z,99611.69
2022-09-26T10:19:56.906Z,99603.31
2022-09-26T10:22:35.078Z,99606.00
2022-09-26T10:25:08.337Z,99607.69
2022-09-26T10:27:39.463Z,99607.09
2022-09-26T10:30:25.607Z,99605.25
2022-09-26T10:32:57.000Z,99601.38
2022-09-26T10:35:45.210Z,99605.63
2022-09-26T10:38:23.311Z,99595.22
2022-09-26T10:40:59.696Z,99590.94
2022-09-26T10:43:31.723Z,99597.97
2022-09-26T10:46:15.069Z,99589.94
2022-09-26T10:49:16.889Z,99578.81
2022-09-26T10:52:15.996Z,99589.16
2022-09-26T10:54:57.120Z,99597.16
2022-09-26T10:57:29.427Z,99581.72
2022-09-26T11:00:00.261Z,99587.00
2022-09-26T11:02:29.846Z,99577.91
2022-09-26T11:05:18.325Z,99576.97
2022-09-26T11:08:10.033Z,99578.63
2022-09-26T11:11:01.147Z,99563.69
2022-09-26T11:13:48.042Z,99558.69
2022-09-26T11:16:20.097Z,99564.81
2022-09-26T11:19:03.978Z,99560.09
2022-09-26T11:21:42.180Z,99555.44
2022-09-26T11:24:19.417Z,99556.34
2022-09-26T11:26:59.571Z,99555.41
2022-09-26T11:29:43.224Z,99550.19
2022-09-26T11:32:29.160Z,99542.22
2022-09-26T11:35:02.345Z,99530.72
2022-09-26T11:37:58.957Z,99522.25
2022-09-26T11:41:00.928Z,99514.69
2022-09-26T11:43:44.835Z,99506.88
2022-09-26T11:46:35.659Z,99504.06
2022-09-26T11:49:31.076Z,99501.25
2022-09-26T11:52:39.768Z,99504.31
2022-09-26T11:55:18.009Z,99489.69
2022-09-26T11:57:54.728Z,99483.13
2022-09-26T12:00:27.274Z,99483.69
2022-09-26T12:03:20.262Z,99475.56
2022-09-26T12:05:55.055Z,99468.66
2022-09-26T12:08:42.585Z,99461.50
2022-09-26T12:11:25.523Z,99470.25
2022-09-26T12:14:03.826Z,99451.19
2022-09-26T12:16:41.389Z,99443.97
2022-09-26T12:19:21.070Z,99448.41
2022-09-26T12:22:16.280Z,99442.34
2022-09-26T12:24:55.996Z,99442.00
2022-09-26T12:27:30.229Z,99439.72
2022-09-26T12:30:06.896Z,99434.94
2022-09-26T12:33:07.650Z,99430.41
2022-09-26T12:35:47.936Z,99425.66
2022-09-26T12:38:33.331Z,99417.63
2022-09-26T12:41:14.277Z,99410.97
2022-09-26T12:43:55.585Z,99405.06
2022-09-26T12:46:34.304Z,99411.31
2022-09-26T12:49:20.283Z,99413.22
2022-09-26T12:51:54.925Z,99410.00
2022-09-26T12:54:44.886Z,99407.84
2022-09-26T12:57:25.298Z,99409.41
2022-09-26T13:00:10.857Z,99409.56
2022-09-26T13:02:57.312Z,99398.38
2022-09-26T13:05:52.830Z,99400.72
2022-09-26T13:08:32.125Z,99399.56
2022-09-26T13:11:12.749Z,99406.78
2022-09-26T13:14:08.874Z,99395.03
2022-09-26T13:16:47.510Z,99390.09
2022-09-26T13:19:23.982Z,99381.53
2022-09-26T13:21:59.463Z,99381.63
2022-09-26T13:24:34.688Z,99380.28
2022-09-26T13:27:13.432Z,99378.19
2022-09-26T13:29:47.673Z,99374.41
2022-09-26T13:32:24.331Z,99373.56
2022-09-26T13:34:57.191Z,99368.00
2022-09-26T13:37:38.167Z,99356.41
2022-09-26T13:40:21.515Z,99357.13
2022-09-26T13:43:02.242Z,99353.72
2022-09-26T13:45:46.247Z,99345.16
2022-09-26T13:48:22.117Z,99341.44
2022-09-26T13:50:55.774Z,99341.22
2022-09-26T13:53:30.196Z,99341.06
2022-09-26T13:56:30.493Z,99339.00
2022-09-26T13:59:05.957Z,99340.28
2022-09-26T14:01:36.524Z,99332.41
2022-09-26T14:04:18.595Z,99334.22
2022-09-26T14:07:27.539Z,99320.53
2022-09-26T14:09:59.070Z,99328.06
2022-09-26T14:12:50.716Z,99320.53
2022-09-26T14:15:22.593Z,99313.81
2022-09-26T14:18:26.339Z,99313.06
2022-09-26T14:21:04.267Z,99309.44
2022-09-26T14:23:38.711Z,99304.69
2022-09-26T14:26:11.740Z,99294.78
2022-09-26T14:28:41.364Z,99278.09
2022-09-26T14:31:22.606Z,99282.22
2022-09-26T14:34:07.158Z,99275.47
2022-09-26T14:36:36.383Z,99269.34
2022-09-26T14:39:06.104Z,99270.72
2022-09-26T14:41:35.618Z,99269.88
2022-09-26T14:44:07.293Z,99264.22
2022-09-26T14:46:37.163Z,99260.97
2022-09-26T14:49:08.914Z,99258.78
2022-09-26T14:51:40.439Z,99258.38
2022-09-26T14:54:20.610Z,99255.41
2022-09-26T14:56:51.018Z,99243.19
2022-09-26T14:59:38.190Z,99235.25
2022-09-26T15:02:31.247Z,99232.41
2022-09-26T15:05:07.725Z,99230.69
2022-09-26T15:07:37.800Z,99230.22
2022-09-26T15:10:18.758Z,99226.75
2022-09-26T15:12:51.087Z,99209.16
2022-09-26T15:15:35.771Z,99208.91
2022-09-26T15:18:09.102Z,99205.75
2022-09-26T15:20:45.666Z,99204.41
2022-09-26T15:23:29.736Z,99204.69
2022-09-26T15:26:02.508Z,99196.13
2022-09-26T15:28:34.726Z,99203.75
2022-09-26T15:31:27.935Z,99195.06
2022-09-26T15:34:02.051Z,99197.50
2022-09-26T15:36:34.306Z,99183.59
2022-09-26T15:39:07.210Z,99194.66
2022-09-26T15:41:52.641Z,99176.00
2022-09-26T15:44:23.120Z,99173.84
2022-09-26T15:46:51.934Z,99175.56
2022-09-26T15:49:22.289Z,99172.16
2022-09-26T15:51:54.525Z,99165.16
2022-09-26T15:54:28.643Z,99168.06
2022-09-26T15:57:01.878Z,99158.69
2022-09-26T15:59:33.895Z,99169.22
2022-09-26T16:02:04.565Z,99169.50
2022-09-26T16:04:34.527Z,99156.53
2022-09-26T16:07:05.985Z,99152.41
2022-09-26T16:09:35.766Z,99156.78
2022-09-26T16:12:10.442Z,99156.16
2022-09-26T16:14:48.118Z,99163.69
2022-09-26T16:17:24.007Z,99158.84
2022-09-26T16:19:54.273Z,99153.84
2022-09-26T16:22:37.086Z,99152.78
2022-09-26T16:25:27.758Z,99154.59
2022-09-26T16:28:02.904Z,99150.75
2022-09-26T16:30:40.309Z,99145.44
2022-09-26T16:33:30.439Z,99141.69
2022-09-26T16:36:05.912Z,99137.47
2022-09-26T16:38:36.912Z,99140.38
2022-09-26T16:41:08.903Z,99136.13
2022-09-26T16:43:39.691Z,99129.47
2022-09-26T16:46:13.338Z,99125.72
2022-09-26T16:48:43.412Z,99117.88
2022-09-26T16:51:17.097Z,99112.44
2022-09-26T16:53:47.955Z,99095.97
2022-09-26T16:56:19.116Z,99100.69
2022-09-26T16:58:51.586Z,99090.06
2022-09-26T17:01:37.956Z,99099.25
2022-09-26T17:04:11.620Z,99092.47
2022-09-26T17:06:39.764Z,99091.41
2022-09-26T17:09:15.896Z,99092.72
2022-09-26T17:11:47.346Z,99079.91
2022-09-26T17:14:17.734Z,99081.25
2022-09-26T17:16:47.843Z,99077.88
2022-09-26T17:19:17.631Z,99071.09
2022-09-26T17:21:46.344Z,99068.09
2022-09-26T17:24:19.247Z,99066.16
2022-09-26T17:26:53.249Z,99059.84
2022-09-26T17:29:26.962Z,99054.91
2022-09-26T17:31:56.924Z,99054.53
2022-09-26T17:34:28.265Z,99050.06
2022-09-26T17:36:58.492Z,99048.25
2022-09-26T17:39:29.187Z,99037.00
2022-09-26T17:41:59.048Z,99029.25
2022-09-26T17:44:27.223Z,99042.91
2022-09-26T17:46:57.197Z,99038.81
2022-09-26T17:49:28.005Z,99033.13
2022-09-26T17:51:58.275Z,99033.50
2022-09-26T17:54:31.046Z,99020.66
2022-09-26T17:57:00.944Z,99014.16
2022-09-26T17:59:29.492Z,99016.31
2022-09-26T18:02:01.396Z,99012.81
2022-09-26T18:04:31.262Z,99010.63
2022-09-26T18:07:04.336Z,99019.81
2022-09-26T18:09:36.457Z,99013.78
2022-09-26T18:12:05.488Z,99015.72
2022-09-26T18:14:35.416Z,99013.19
2022-09-26T18:17:04.332Z,99006.28
2022-09-26T18:19:32.419Z,99013.06
2022-09-26T18:22:00.576Z,99012.34
2022-09-26T18:24:30.566Z,99018.88
2022-09-26T18:27:03.812Z,99008.00
2022-09-26T18:29:36.839Z,99008.13
2022-09-26T18:32:07.453Z,99004.97
2022-09-26T18:34:35.496Z,99006.06
2022-09-26T18:37:04.128Z,99006.56
2022-09-26T18:39:32.565Z,99013.16
2022-09-26T18:42:06.057Z,99009.66
2022-09-26T18:44:35.112Z,99015.84
2022-09-26T18:47:06.763Z,99023.22
2022-09-26T18:49:37.322Z,99038.81
2022-09-26T18:52:05.767Z,99041.06
2022-09-26T18:54:35.291Z,99033.06
2022-09-26T18:57:22.265Z,99042.75
2022-09-26T18:59:50.611Z,99041.78
2022-09-26T19:02:23.562Z,99041.16
2022-09-26T19:04:52.380Z,99039.81
2022-09-26T19:07:21.623Z,99052.00
2022-09-26T19:09:50.806Z,99038.94
2022-09-26T19:12:21.258Z,99039.78
2022-09-26T19:14:49.466Z,99035.44
2022-09-26T19:17:17.744Z,99041.59
2022-09-26T19:19:45.870Z,99033.94
2022-09-26T19:22:17.366Z,99036.00
2022-09-26T19:24:48.830Z,99031.97
2022-09-26T19:27:22.414Z,99035.97
2022-09-26T19:30:01.100Z,99037.28
2022-09-26T19:32:33.255Z,99036.03
2022-09-26T19:35:04.093Z,99030.69
2022-09-26T19:37:32.209Z,99038.91
2022-09-26T19:40:00.499Z,99042.00
2022-09-26T19:42:29.930Z,99037.03
2022-09-26T19:44:59.105Z,99028.69
2022-09-26T19:47:29.111Z,99025.63
2022-09-26T19:49:57.172Z,99023.59
2022-09-26T19:52:25.204Z,99030.59
2022-09-26T19:54:53.361Z,99016.84
2022-09-26T19:57:23.213Z,99017.38
2022-09-26T19:59:52.670Z,99017.72
2022-09-26T20:02:22.439Z,99009.66
2022-09-26T20:04:51.804Z,99009.66
2022-09-26T20:07:20.700Z,98993.63
2022-09-26T20:09:49.080Z,98999.16
2022-09-26T20:12:17.121Z,98992.03
2022-09-26T20:14:45.192Z,98992.81
2022-09-26T20:17:20.994Z,98991.09
2022-09-26T20:19:50.154Z,98980.88
2022-09-26T20:22:21.090Z,98987.13
2022-09-26T20:24:53.548Z,98983.03
2022-09-26T20:27:24.170Z,98976.06
2022-09-26T20:30:10.366Z,98975.53
2022-09-26T20:32:40.649Z,98956.56
2022-09-26T20:35:10.767Z,98959.94
2022-09-26T20:37:41.405Z,98963.31
2022-09-26T20:40:17.948Z,98947.13
2022-09-26T20:42:49.257Z,98942.91
2022-09-26T20:45:20.818Z,98942.75
2022-09-26T20:47:50.545Z,98942.41
2022-09-26T20:50:20.686Z,98940.38
2022-09-26T20:52:48.797Z,98938.06
2022-09-26T20:55:18.051Z,98934.28
2022-09-26T20:57:46.719Z,98925.56
2022-09-26T21:00:16.407Z,98938.22
2022-09-26T21:02:45.376Z,98935.06
2022-09-26T21:05:19.171Z,98930.25
2022-09-26T21:07:47.459Z,98919.88
2022-09-26T21:10:23.098Z,98915.53
2022-09-26T21:12:51.949Z,98907.53
2022-09-26T21:15:20.641Z,98901.88
2022-09-26T21:17:49.287Z,98898.81
2022-09-26T21:20:27.173Z,98882.94
2022-09-26T21:23:13.894Z,98881.16
2022-09-26T21:25:41.910Z,98878.72
2022-09-26T21:28:21.901Z,98882.03
2022-09-26T21:30:50.528Z,98875.75
2022-09-26T21:33:21.650Z,98869.47
2022-09-26T21:35:51.540Z,98865.00
2022-09-26T21:38:21.281Z,98863.56
2022-09-26T21:40:51.155Z,98865.84
2022-09-26T21:43:23.637Z,98858.97
2022-09-26T21:45:52.082Z,98857.47
2022-09-26T21:48:20.366Z,98850.59
2022-09-26T21:50:57.933Z,98850.50
2022-09-26T21:53:30.906Z,98853.44
2022-09-26T21:56:07.544Z,98854.78
2022-09-26T21:58:39.258Z,98847.03
2022-09-26T22:01:07.416Z,98836.16
2022-09-26T22:03:35.625Z,98845.47
2022-09-26T22:06:07.575Z,98837.75
2022-09-26T22:08:36.550Z,98826.28
2022-09-26T22:11:05.201Z,98832.66
2022-09-26T22:13:35.224Z,98836.78
2022-09-26T22:16:07.610Z,98829.63
2022-09-26T22:18:37.126Z,98827.66
2022-09-26T22:21:06.825Z,98821.41
2022-09-26T22:23:36.043Z,98817.09
2022-09-26T22:26:04.813Z,98810.31
2022-09-26T22:28:33.027Z,98817.78
2022-09-26T22:31:02.132Z,98814.25
2022-09-26T22:33:30.462Z,98803.13
2022-09-26T22:35:58.526Z,98810.56
2022-09-26T22:38:27.934Z,98811.50
2022-09-26T22:40:57.132Z,98806.69
2022-09-26T22:43:25.337Z,98800.09
2022-09-26T22:45:53.563Z,98789.03
2022-09-26T22:48:22.076Z,98791.53
2022-09-26T22:50:50.112Z,98784.00
2022-09-26T22:53:18.079Z,98785.50
2022-09-26T22:55:55.261Z,98782.88
2022-09-26T22:58:23.665Z,98777.41
2022-09-26T23:00:51.736Z,98768.38
2022-09-26T23:03:19.885Z,98764.28
2022-09-26T23:05:48.330Z,98761.63
2022-09-26T23:08:16.371Z,98761.91
2022-09-26T23:10:50.034Z,98762.63
2022-09-26T23:13:19.898Z,98751.56
2022-09-26T23:15:48.772Z,98746.50
2022-09-26T23:18:16.878Z,98743.13
2022-09-26T23:20:45.145Z,98740.47
2022-09-26T23:23:14.974Z,98735.44
2022-09-26T23:25:45.877Z,98732.88
2022-09-26T23:28:13.885Z,98730.00
2022-09-26T23:30:43.930Z,98738.56
2022-09-26T23:33:12.053Z,98732.31
2022-09-26T23:35:40.326Z,98726.78
2022-09-26T23:38:08.394Z,98729.66
2022-09-26T23:40:37.777Z,98720.75
2022-09-26T23:43:06.363Z,98719.09
2022-09-26T23:45:34.370Z,98711.28
2022-09-26T23:48:04.293Z,98706.31
2022-09-26T23:50:32.111Z,98707.31
2022-09-26T23:53:04.407Z,98707.69
2022-09-26T23:55:34.451Z,98699.84
2022-09-26T23:58:02.892Z,98701.28
